Time;durP1;ratioP1;P1;durP2;ratioP2;P2;SDS_P1;SDS_P2;PMS_P1;PMS_P2;Temp;Humidity;BMP_temperature;BMP_pressure;BME280_temperature;BME280_humidity;BME280_pressure;Samples;Min_cycle;Max_cycle;Signal;HPM_P1;HPM_P2
2023/08/28 00:02:12;;;;;;;19.10;12.18;;;;;;;;;;5072467;28;20086;-54
2023/08/28 00:04:38;;;;;;;20.02;12.73;;;;;;;;;;5072324;28;20384;-54
2023/08/28 00:07:04;;;;;;;20.35;12.60;;;;;;;;;;5072353;28;20036;-55
2023/08/28 00:09:30;;;;;;;18.83;12.23;;;;;;;;;;5072294;28;20327;-53
2023/08/28 00:11:56;;;;;;;19.98;12.25;;;;;;;;;;5072273;28;20081;-55
2023/08/28 00:14:24;;;;;;;20.67;12.82;;;;;;;;;;5072027;28;20031;-55
2023/08/28 00:16:50;;;;;;;19.67;13.18;;;;;;;;;;5072210;28;20451;-56
2023/08/28 00:19:16;;;;;;;20.35;13.02;;;;;;;;;;5072212;28;20092;-54
2023/08/28 00:21:43;;;;;;;21.67;12.52;;;;;;;;;;5072143;28;20431;-54
2023/08/28 00:24:09;;;;;;;21.33;13.35;;;;;;;;;;5071945;28;20048;-53
2023/08/28 00:26:35;;;;;;;19.50;12.73;;;;;;;;;;5071939;28;20424;-52
2023/08/28 00:29:01;;;;;;;21.20;13.02;;;;;;;;;;5071898;28;20158;-54
2023/08/28 00:31:27;;;;;;;19.63;12.55;;;;;;;;;;5071694;28;20035;-56
2023/08/28 00:33:53;;;;;;;21.52;13.13;;;;;;;;;;5054015;28;20025;-53
2023/08/28 00:36:19;;;;;;;19.60;12.80;;;;;;;;;;5071684;28;20032;-57
2023/08/28 00:38:45;;;;;;;22.45;13.32;;;;;;;;;;5071959;28;20021;-57
2023/08/28 00:41:11;;;;;;;22.10;13.48;;;;;;;;;;5053837;28;20127;-53
2023/08/28 00:43:37;;;;;;;21.67;14.45;;;;;;;;;;5071734;28;20029;-56
2023/08/28 00:46:04;;;;;;;21.75;14.57;;;;;;;;;;5071562;28;20032;-53
2023/08/28 00:48:30;;;;;;;22.90;14.55;;;;;;;;;;5071732;28;20029;-52
2023/08/28 00:50:57;;;;;;;22.13;14.07;;;;;;;;;;5071585;28;20107;-54
2023/08/28 00:53:23;;;;;;;22.08;14.13;;;;;;;;;;5071674;28;20549;-55
2023/08/28 00:55:49;;;;;;;21.40;13.82;;;;;;;;;;5071240;28;20051;-55
2023/08/28 00:58:16;;;;;;;21.25;14.40;;;;;;;;;;5053590;28;20396;-54
2023/08/28 01:00:42;;;;;;;20.67;14.02;;;;;;;;;;5071520;28;20441;-53
2023/08/28 01:03:09;;;;;;;24.38;14.05;;;;;;;;;;5071424;28;20035;-55
2023/08/28 01:05:53;;;;;;;22.88;14.50;;;;;;;;;;5071108;28;20020;-54
2023/08/28 01:08:25;;;;;;;23.60;14.15;;;;;;;;;;5071515;28;20035;-55
2023/08/28 01:10:54;;;;;;;21.75;14.32;;;;;;;;;;5071390;28;20021;-52
2023/08/28 01:13:31;;;;;;;23.00;15.23;;;;;;;;;;5075906;28;20024;-58
2023/08/28 01:15:58;;;;;;;23.58;14.68;;;;;;;;;;5076612;28;20024;-50
2023/08/28 01:18:24;;;;;;;21.65;13.98;;;;;;;;;;5071270;28;20039;-57
2023/08/28 01:20:51;;;;;;;22.90;15.00;;;;;;;;;;5071084;28;20048;-57
2023/08/28 01:23:33;;;;;;;22.48;14.88;;;;;;;;;;5071226;28;20054;-54
2023/08/28 01:25:59;;;;;;;23.17;15.05;;;;;;;;;;5071058;28;20025;-52
2023/08/28 01:28:25;;;;;;;22.08;14.07;;;;;;;;;;5053168;28;20035;-54
2023/08/28 01:30:53;;;;;;;22.98;14.10;;;;;;;;;;5070973;28;20406;-55
2023/08/28 01:33:19;;;;;;;21.88;13.90;;;;;;;;;;5070989;28;20610;-55
2023/08/28 01:35:48;;;;;;;22.80;13.77;;;;;;;;;;5070845;28;20392;-55
2023/08/28 01:38:19;;;;;;;22.88;13.05;;;;;;;;;;5053074;28;20025;-53
2023/08/28 01:41:08;;;;;;;22.65;14.90;;;;;;;;;;5071077;28;20109;-54
2023/08/28 01:43:38;;;;;;;22.83;13.85;;;;;;;;;;5070901;28;20037;-54
2023/08/28 01:46:05;;;;;;;24.55;14.70;;;;;;;;;;5071617;28;20134;-52
2023/08/28 01:48:37;;;;;;;22.17;14.95;;;;;;;;;;5071499;28;20044;-53
2023/08/28 01:51:03;;;;;;;22.38;14.77;;;;;;;;;;5070814;28;20033;-54
2023/08/28 01:53:30;;;;;;;22.30;13.57;;;;;;;;;;5071097;28;20021;-52
2023/08/28 01:56:08;;;;;;;23.52;15.15;;;;;;;;;;5070408;28;20081;-55
2023/08/28 01:58:38;;;;;;;22.65;15.27;;;;;;;;;;5070778;28;20649;-53
2023/08/28 02:01:05;;;;;;;23.77;14.88;;;;;;;;;;5070630;28;20046;-53
2023/08/28 02:03:31;;;;;;;22.45;15.48;;;;;;;;;;5052734;28;20107;-55
2023/08/28 02:05:57;;;;;;;25.33;14.93;;;;;;;;;;5070952;28;20028;-53
2023/08/28 02:08:23;;;;;;;23.73;15.02;;;;;;;;;;5074844;28;20032;-55
2023/08/28 02:10:49;;;;;;;22.50;15.07;;;;;;;;;;5074590;28;20029;-52
2023/08/28 02:13:15;;;;;;;24.15;15.27;;;;;;;;;;5074748;28;20033;-54
2023/08/28 02:15:41;;;;;;;22.70;14.68;;;;;;;;;;5056573;28;20119;-53
2023/08/28 02:18:07;;;;;;;21.80;15.27;;;;;;;;;;5074553;28;20437;-57
2023/08/28 02:20:32;;;;;;;27.23;15.07;;;;;;;;;;5074565;28;20031;-55
2023/08/28 02:22:59;;;;;;;28.50;15.57;;;;;;;;;;5074501;28;20029;-57
2023/08/28 02:25:25;;;;;;;27.02;16.08;;;;;;;;;;5074316;28;20077;-53
2023/08/28 02:27:51;;;;;;;25.75;16.15;;;;;;;;;;5074363;28;20032;-55
2023/08/28 02:30:17;;;;;;;26.13;16.85;;;;;;;;;;5074429;28;20043;-55
2023/08/28 02:32:44;;;;;;;26.13;17.35;;;;;;;;;;5056236;28;20035;-52
2023/08/28 02:35:13;;;;;;;24.85;16.75;;;;;;;;;;5075793;28;20029;-52
2023/08/28 02:37:40;;;;;;;25.38;17.10;;;;;;;;;;5081580;28;20020;-51
2023/08/28 02:40:06;;;;;;;24.48;17.58;;;;;;;;;;5059612;28;20056;-49
2023/08/28 02:42:32;;;;;;;25.38;17.38;;;;;;;;;;5094182;28;20039;-54
2023/08/28 02:44:58;;;;;;;25.45;17.48;;;;;;;;;;5094219;28;20024;-52
2023/08/28 02:47:24;;;;;;;24.80;17.40;;;;;;;;;;5094223;28;20028;-55
2023/08/28 02:49:50;;;;;;;27.00;17.15;;;;;;;;;;5094357;28;20020;-51
2023/08/28 02:52:16;;;;;;;25.80;18.08;;;;;;;;;;5094199;28;20026;-53
2023/08/28 02:54:42;;;;;;;26.23;16.98;;;;;;;;;;5094143;28;20032;-53
2023/08/28 02:57:08;;;;;;;27.40;18.98;;;;;;;;;;5094098;28;20063;-53
2023/08/28 02:59:34;;;;;;;25.92;18.25;;;;;;;;;;5075868;28;20028;-53
2023/08/28 03:02:00;;;;;;;30.38;18.60;;;;;;;;;;5093905;28;20020;-51
2023/08/28 03:04:26;;;;;;;29.67;19.25;;;;;;;;;;5093663;28;20085;-53
2023/08/28 03:06:52;;;;;;;29.50;19.58;;;;;;;;;;5093769;28;20468;-52
2023/08/28 03:09:19;;;;;;;26.95;19.08;;;;;;;;;;5093811;28;20020;-51
2023/08/28 03:11:45;;;;;;;27.25;18.52;;;;;;;;;;5093568;28;20115;-56
2023/08/28 03:14:11;;;;;;;27.45;18.85;;;;;;;;;;5075526;28;20035;-55
2023/08/28 03:16:37;;;;;;;27.58;19.25;;;;;;;;;;5093673;28;20021;-51
2023/08/28 03:19:03;;;;;;;29.38;19.92;;;;;;;;;;5092617;28;20026;-49
2023/08/28 03:21:29;;;;;;;29.17;19.88;;;;;;;;;;5093632;28;20031;-51
2023/08/28 03:23:55;;;;;;;30.40;19.60;;;;;;;;;;5093726;28;20027;-53
2023/08/28 03:26:21;;;;;;;27.67;18.55;;;;;;;;;;5093790;28;20165;-52
2023/08/28 03:28:47;;;;;;;27.60;19.25;;;;;;;;;;5093417;28;20093;-53
2023/08/28 03:31:13;;;;;;;26.58;19.58;;;;;;;;;;5075307;28;20032;-53
2023/08/28 03:33:39;;;;;;;26.27;18.55;;;;;;;;;;5093492;28;20059;-53
2023/08/28 03:36:05;;;;;;;29.85;18.60;;;;;;;;;;5092422;28;20032;-54
2023/08/28 03:38:31;;;;;;;27.70;18.58;;;;;;;;;;5092808;28;20043;-53
2023/08/28 03:40:57;;;;;;;29.65;20.40;;;;;;;;;;5092967;28;20048;-55
2023/08/28 03:43:23;;;;;;;28.23;19.20;;;;;;;;;;5093338;28;20032;-51
2023/08/28 03:45:49;;;;;;;31.60;19.08;;;;;;;;;;5092963;28;20024;-54
2023/08/28 03:48:15;;;;;;;29.63;20.05;;;;;;;;;;5092853;28;20080;-55
2023/08/28 03:50:41;;;;;;;27.33;18.40;;;;;;;;;;5093185;28;20024;-50
2023/08/28 03:53:07;;;;;;;28.65;19.33;;;;;;;;;;5092813;28;20036;-51
2023/08/28 03:55:33;;;;;;;28.60;20.17;;;;;;;;;;5092704;28;20039;-54
2023/08/28 03:58:03;;;;;;;30.05;21.00;;;;;;;;;;5092816;28;20020;-51
2023/08/28 04:00:29;;;;;;;30.02;20.35;;;;;;;;;;5095018;28;20016;-58
2023/08/28 04:02:55;;;;;;;29.48;20.55;;;;;;;;;;5084033;28;20032;-54
2023/08/28 04:05:22;;;;;;;28.70;20.77;;;;;;;;;;5094284;28;20030;-51
2023/08/28 04:07:49;;;;;;;29.75;21.50;;;;;;;;;;5092739;28;20099;-50
2023/08/28 04:10:15;;;;;;;28.70;19.95;;;;;;;;;;5092654;28;20080;-55
2023/08/28 04:12:41;;;;;;;29.88;20.20;;;;;;;;;;5092579;28;20028;-51
2023/08/28 04:15:08;;;;;;;28.45;20.95;;;;;;;;;;5093717;28;20396;-52
2023/08/28 04:17:34;;;;;;;30.35;21.25;;;;;;;;;;5075462;28;20115;-50
2023/08/28 04:20:08;;;;;;;30.05;21.25;;;;;;;;;;5092922;28;20149;-53
2023/08/28 04:22:34;;;;;;;29.63;20.52;;;;;;;;;;5092015;28;20115;-56
2023/08/28 04:25:00;;;;;;;28.00;19.55;;;;;;;;;;5092155;28;20526;-56
2023/08/28 04:27:26;;;;;;;29.33;20.50;;;;;;;;;;5092280;28;20213;-52
2023/08/28 04:29:52;;;;;;;29.38;20.50;;;;;;;;;;5091809;28;20122;-52
2023/08/28 04:32:18;;;;;;;29.90;20.63;;;;;;;;;;5092043;28;20547;-54
2023/08/28 04:34:44;;;;;;;30.17;21.33;;;;;;;;;;5092099;28;20103;-52
2023/08/28 04:37:10;;;;;;;29.40;20.02;;;;;;;;;;5092010;28;20365;-55
2023/08/28 04:39:36;;;;;;;29.65;21.30;;;;;;;;;;5091881;28;20062;-55
2023/08/28 04:42:02;;;;;;;31.13;20.67;;;;;;;;;;5091613;28;20028;-53
2023/08/28 04:44:28;;;;;;;31.00;21.05;;;;;;;;;;5091666;28;20031;-55
2023/08/28 04:46:54;;;;;;;31.58;22.08;;;;;;;;;;5091861;28;20021;-54
2023/08/28 04:49:20;;;;;;;29.90;20.55;;;;;;;;;;5091895;28;20032;-50
2023/08/28 04:51:46;;;;;;;31.33;20.25;;;;;;;;;;5092179;28;20023;-53
2023/08/28 04:54:12;;;;;;;31.65;21.20;;;;;;;;;;5091774;28;20427;-52
2023/08/28 04:56:38;;;;;;;30.85;21.08;;;;;;;;;;5091732;28;20101;-52
2023/08/28 04:59:05;;;;;;;32.40;22.92;;;;;;;;;;5073464;28;20044;-54
2023/08/28 05:01:31;;;;;;;35.35;22.48;;;;;;;;;;5091872;28;20399;-54
2023/08/28 05:03:57;;;;;;;30.38;20.65;;;;;;;;;;5091522;28;20084;-56
2023/08/28 05:06:23;;;;;;;33.10;22.50;;;;;;;;;;5091604;28;20391;-54
2023/08/28 05:08:49;;;;;;;30.58;20.88;;;;;;;;;;5091153;28;20024;-55
2023/08/28 05:11:15;;;;;;;32.40;21.60;;;;;;;;;;5091332;28;20027;-52
2023/08/28 05:13:41;;;;;;;30.88;21.42;;;;;;;;;;5091492;28;20046;-52
2023/08/28 05:16:07;;;;;;;31.85;20.77;;;;;;;;;;5073059;28;20024;-56
2023/08/28 05:18:33;;;;;;;31.40;22.02;;;;;;;;;;5091092;28;20027;-56
2023/08/28 05:20:59;;;;;;;31.23;21.73;;;;;;;;;;5091088;28;20020;-53
2023/08/28 05:23:25;;;;;;;30.05;20.58;;;;;;;;;;5091169;28;20020;-53
2023/08/28 05:25:54;;;;;;;33.67;23.70;;;;;;;;;;5090673;28;20024;-54
2023/08/28 05:28:20;;;;;;;31.98;21.65;;;;;;;;;;5091005;28;20032;-53
2023/08/28 05:30:46;;;;;;;32.90;23.48;;;;;;;;;;5091079;28;20103;-54
2023/08/28 05:33:12;;;;;;;31.45;22.65;;;;;;;;;;5090783;28;20123;-51
2023/08/28 05:35:38;;;;;;;32.22;21.15;;;;;;;;;;5090592;28;20528;-56
2023/08/28 05:38:05;;;;;;;32.13;21.83;;;;;;;;;;5090937;28;20047;-51
2023/08/28 05:40:31;;;;;;;30.35;21.77;;;;;;;;;;5090443;28;20035;-57
2023/08/28 05:42:57;;;;;;;32.30;21.75;;;;;;;;;;5091422;28;20044;-54
2023/08/28 05:45:23;;;;;;;31.58;22.10;;;;;;;;;;5090339;28;20065;-54
2023/08/28 05:47:48;;;;;;;29.70;21.27;;;;;;;;;;5090597;28;20033;-52
2023/08/28 05:50:18;;;;;;;30.95;19.90;;;;;;;;;;5091012;28;20089;-51
2023/08/28 05:52:43;;;;;;;30.58;21.33;;;;;;;;;;5090524;28;20539;-52
2023/08/28 05:55:09;;;;;;;31.20;21.48;;;;;;;;;;5090426;28;20071;-55
2023/08/28 05:57:35;;;;;;;30.67;20.52;;;;;;;;;;5090561;28;20055;-56
2023/08/28 06:00:02;;;;;;;28.23;20.17;;;;;;;;;;5072520;28;20035;-53
2023/08/28 06:02:28;;;;;;;30.25;20.58;;;;;;;;;;5090382;28;20075;-51
2023/08/28 06:04:54;;;;;;;31.90;21.25;;;;;;;;;;5090147;28;20162;-55
2023/08/28 06:07:20;;;;;;;29.98;17.88;;;;;;;;;;5090534;28;20030;-55
2023/08/28 06:09:46;;;;;;;30.27;20.67;;;;;;;;;;5090544;28;20134;-54
2023/08/28 06:12:12;;;;;;;30.77;21.73;;;;;;;;;;5090587;28;20052;-54
2023/08/28 06:14:38;;;;;;;28.13;20.95;;;;;;;;;;5090503;28;20184;-51
2023/08/28 06:17:04;;;;;;;29.67;20.85;;;;;;;;;;5090250;28;20032;-56
2023/08/28 06:19:30;;;;;;;29.05;21.40;;;;;;;;;;5090459;28;20020;-56
2023/08/28 06:21:56;;;;;;;29.35;20.58;;;;;;;;;;5077075;28;20023;-56
2023/08/28 06:24:22;;;;;;;28.27;20.27;;;;;;;;;;5099888;28;20067;-52
2023/08/28 06:26:48;;;;;;;27.48;20.23;;;;;;;;;;5094101;28;20034;-49
2023/08/28 06:29:14;;;;;;;27.10;19.70;;;;;;;;;;5090649;28;20027;-55
2023/08/28 06:31:40;;;;;;;27.80;21.58;;;;;;;;;;5090592;28;20491;-51
2023/08/28 06:34:06;;;;;;;25.50;18.90;;;;;;;;;;5072184;28;20024;-50
2023/08/28 06:36:32;;;;;;;28.02;20.45;;;;;;;;;;5090110;28;20031;-50
2023/08/28 06:38:58;;;;;;;28.50;21.40;;;;;;;;;;5090304;28;20070;-47
2023/08/28 06:41:24;;;;;;;27.92;20.02;;;;;;;;;;5090168;28;20111;-53
2023/08/28 06:43:50;;;;;;;28.17;20.23;;;;;;;;;;5090193;28;20108;-55
2023/08/28 06:46:16;;;;;;;26.65;19.13;;;;;;;;;;5072112;28;20454;-50
2023/08/28 06:48:43;;;;;;;27.17;19.77;;;;;;;;;;5089786;28;20028;-55
2023/08/28 06:51:10;;;;;;;25.60;17.35;;;;;;;;;;5089765;28;20598;-51
2023/08/28 06:53:36;;;;;;;25.77;19.20;;;;;;;;;;5092624;28;20026;-55
2023/08/28 06:56:03;;;;;;;27.52;19.35;;;;;;;;;;5093338;28;20035;-56
2023/08/28 06:58:29;;;;;;;25.85;18.83;;;;;;;;;;5093777;28;20051;-53
2023/08/28 07:00:55;;;;;;;25.90;19.17;;;;;;;;;;5093377;28;20024;-50
2023/08/28 07:03:21;;;;;;;26.30;17.48;;;;;;;;;;5094159;28;20398;-51
2023/08/28 07:05:47;;;;;;;25.50;18.42;;;;;;;;;;5093938;28;20024;-53
2023/08/28 07:08:12;;;;;;;23.88;17.08;;;;;;;;;;5094334;28;20034;-50
2023/08/28 07:10:38;;;;;;;27.85;18.40;;;;;;;;;;5094111;28;20380;-53
2023/08/28 07:13:05;;;;;;;27.08;18.67;;;;;;;;;;5094009;28;20039;-54
2023/08/28 07:15:30;;;;;;;23.92;17.10;;;;;;;;;;5093426;28;20046;-53
2023/08/28 07:17:57;;;;;;;24.02;17.13;;;;;;;;;;5093509;28;20091;-50
2023/08/28 07:20:23;;;;;;;25.85;18.15;;;;;;;;;;5093402;28;20031;-51
2023/08/28 07:22:49;;;;;;;25.33;18.20;;;;;;;;;;5093473;28;20078;-51
2023/08/28 07:25:19;;;;;;;29.13;17.13;;;;;;;;;;5093217;28;20069;-49
2023/08/28 07:27:45;;;;;;;29.15;17.45;;;;;;;;;;5093590;28;20108;-53
2023/08/28 07:30:11;;;;;;;25.92;17.15;;;;;;;;;;5093386;28;20056;-49
2023/08/28 07:32:37;;;;;;;24.73;16.08;;;;;;;;;;5093405;28;20110;-49
2023/08/28 07:35:05;;;;;;;24.08;16.42;;;;;;;;;;5093244;28;20028;-48
2023/08/28 07:37:31;;;;;;;23.00;16.13;;;;;;;;;;5093393;28;20199;-49
2023/08/28 07:39:57;;;;;;;24.77;17.08;;;;;;;;;;5075044;28;20024;-50
2023/08/28 07:42:23;;;;;;;23.98;16.42;;;;;;;;;;5093094;28;20116;-48
2023/08/28 07:44:49;;;;;;;24.20;17.40;;;;;;;;;;5092771;28;20546;-53
2023/08/28 07:47:15;;;;;;;23.25;16.35;;;;;;;;;;5074979;28;20024;-53
2023/08/28 07:49:42;;;;;;;24.38;17.45;;;;;;;;;;5092932;28;20026;-52
2023/08/28 07:52:08;;;;;;;23.33;16.08;;;;;;;;;;5074567;28;20487;-54
2023/08/28 07:54:34;;;;;;;22.25;16.25;;;;;;;;;;5073561;28;20138;-55
2023/08/28 07:57:00;;;;;;;22.63;15.52;;;;;;;;;;5092378;28;20032;-50
2023/08/28 07:59:26;;;;;;;23.23;16.75;;;;;;;;;;5092382;28;20024;-48
2023/08/28 08:01:52;;;;;;;21.95;15.18;;;;;;;;;;5091981;28;20024;-52
2023/08/28 08:04:18;;;;;;;24.13;14.23;;;;;;;;;;5091448;28;20051;-50
2023/08/28 08:06:44;;;;;;;20.92;14.40;;;;;;;;;;5092341;28;20066;-51
2023/08/28 08:09:10;;;;;;;26.83;15.32;;;;;;;;;;5092639;28;20118;-53
2023/08/28 08:11:36;;;;;;;20.92;14.27;;;;;;;;;;5092252;28;20051;-49
2023/08/28 08:14:03;;;;;;;23.15;14.52;;;;;;;;;;5092014;28;20885;-57
2023/08/28 08:16:29;;;;;;;21.08;14.55;;;;;;;;;;5093052;28;20024;-60
2023/08/28 08:18:55;;;;;;;23.98;14.68;;;;;;;;;;5092406;28;20170;-57
2023/08/28 08:21:22;;;;;;;20.73;13.98;;;;;;;;;;5092079;28;20117;-55
2023/08/28 08:23:49;;;;;;;17.92;11.73;;;;;;;;;;5092041;28;20472;-57
2023/08/28 08:26:15;;;;;;;18.75;12.55;;;;;;;;;;5092018;28;20020;-53
2023/08/28 08:28:41;;;;;;;19.17;12.48;;;;;;;;;;5092292;28;20044;-57
2023/08/28 08:31:07;;;;;;;28.95;13.70;;;;;;;;;;5092078;28;20447;-59
2023/08/28 08:33:33;;;;;;;31.77;13.95;;;;;;;;;;5092119;28;20077;-60
2023/08/28 08:36:00;;;;;;;19.50;12.82;;;;;;;;;;5092005;28;20094;-55
2023/08/28 08:38:26;;;;;;;19.70;11.48;;;;;;;;;;5092163;28;20032;-59
2023/08/28 08:40:58;;;;;;;18.17;12.00;;;;;;;;;;5092021;28;20101;-58
2023/08/28 08:43:25;;;;;;;19.40;13.07;;;;;;;;;;5092281;28;20028;-58
2023/08/28 08:45:56;;;;;;;19.52;13.35;;;;;;;;;;5094134;28;20031;-58
2023/08/28 08:48:24;;;;;;;21.98;12.70;;;;;;;;;;5096401;28;20413;-57
2023/08/28 08:50:50;;;;;;;20.42;12.63;;;;;;;;;;5095823;28;20053;-56
2023/08/28 08:53:21;;;;;;;21.27;12.30;;;;;;;;;;5092865;28;20024;-58
2023/08/28 08:55:48;;;;;;;18.60;11.35;;;;;;;;;;5091841;28;20026;-60
2023/08/28 08:58:16;;;;;;;18.08;11.70;;;;;;;;;;5092303;28;20054;-58
2023/08/28 09:00:45;;;;;;;17.70;11.38;;;;;;;;;;5091886;28;20047;-60
2023/08/28 09:03:11;;;;;;;17.67;11.20;;;;;;;;;;5091567;28;20341;-58
2023/08/28 09:05:37;;;;;;;18.08;10.40;;;;;;;;;;5091867;28;20107;-59
2023/08/28 09:08:07;;;;;;;16.60;11.32;;;;;;;;;;5091714;28;20078;-61
2023/08/28 09:10:33;;;;;;;17.25;10.38;;;;;;;;;;5092011;28;20024;-60
2023/08/28 09:13:00;;;;;;;16.05;9.98;;;;;;;;;;5073614;28;20020;-59
2023/08/28 09:15:26;;;;;;;18.08;10.00;;;;;;;;;;5090558;28;20092;-60
2023/08/28 09:17:52;;;;;;;16.35;9.85;;;;;;;;;;5089863;28;20027;-59
2023/08/28 09:20:19;;;;;;;16.08;9.63;;;;;;;;;;5089421;28;20535;-57
2023/08/28 09:22:50;;;;;;;16.52;10.63;;;;;;;;;;5089486;28;20031;-60
2023/08/28 09:25:17;;;;;;;16.83;10.18;;;;;;;;;;5071887;28;20520;-57
2023/08/28 09:27:43;;;;;;;18.92;10.52;;;;;;;;;;5089683;28;20107;-57
2023/08/28 09:30:28;;;;;;;15.60;10.45;;;;;;;;;;5089356;28;20052;-59
2023/08/28 09:32:54;;;;;;;15.40;9.82;;;;;;;;;;5090426;28;20119;-60
2023/08/28 09:35:20;;;;;;;15.55;9.73;;;;;;;;;;5090973;28;20082;-59
2023/08/28 09:37:59;;;;;;;15.98;9.68;;;;;;;;;;5091309;28;20062;-58
2023/08/28 09:40:39;;;;;;;15.23;10.45;;;;;;;;;;5091842;28;20052;-61
2023/08/28 09:43:12;;;;;;;16.33;10.63;;;;;;;;;;5091008;28;20535;-61
2023/08/28 09:45:39;;;;;;;16.65;11.30;;;;;;;;;;5092098;28;20028;-59
2023/08/28 09:48:05;;;;;;;15.60;10.10;;;;;;;;;;5073728;28;20361;-58
2023/08/28 09:50:32;;;;;;;15.05;10.70;;;;;;;;;;5091372;28;20031;-62
2023/08/28 09:53:07;;;;;;;15.13;9.93;;;;;;;;;;5091096;28;20024;-58
2023/08/28 09:55:37;;;;;;;15.73;9.65;;;;;;;;;;5090800;28;20024;-61
2023/08/28 09:58:08;;;;;;;15.07;9.93;;;;;;;;;;5091312;28;20021;-59
2023/08/28 10:00:35;;;;;;;16.05;10.70;;;;;;;;;;5073266;28;20382;-59
2023/08/28 10:03:01;;;;;;;15.93;10.25;;;;;;;;;;5073229;28;20024;-58
2023/08/28 10:05:28;;;;;;;14.60;10.23;;;;;;;;;;5090711;28;20472;-58
2023/08/28 10:07:57;;;;;;;16.08;10.82;;;;;;;;;;5091026;28;20425;-62
2023/08/28 10:10:24;;;;;;;15.30;10.63;;;;;;;;;;5091521;28;20163;-60
2023/08/28 10:12:51;;;;;;;16.13;10.85;;;;;;;;;;5091632;28;20024;-57
2023/08/28 10:15:18;;;;;;;15.77;10.70;;;;;;;;;;5090858;28;20586;-61
2023/08/28 10:17:44;;;;;;;15.30;11.02;;;;;;;;;;5091053;28;20056;-60
2023/08/28 10:20:12;;;;;;;15.90;10.75;;;;;;;;;;5090808;28;20027;-60
2023/08/28 10:22:38;;;;;;;15.00;10.85;;;;;;;;;;5090272;28;20020;-60
2023/08/28 10:25:05;;;;;;;16.20;11.52;;;;;;;;;;5090182;28;20028;-62
2023/08/28 10:27:32;;;;;;;15.52;10.80;;;;;;;;;;5091486;28;20111;-59
2023/08/28 10:29:58;;;;;;;16.83;11.05;;;;;;;;;;5094456;28;20031;-61
2023/08/28 10:32:25;;;;;;;15.27;10.88;;;;;;;;;;5094303;28;20434;-59
2023/08/28 10:34:52;;;;;;;15.65;11.13;;;;;;;;;;5094313;28;20380;-59
2023/08/28 10:37:18;;;;;;;16.73;11.00;;;;;;;;;;5093904;28;20054;-60
2023/08/28 10:39:45;;;;;;;15.30;10.95;;;;;;;;;;5094128;28;20115;-58
2023/08/28 10:42:13;;;;;;;16.15;11.05;;;;;;;;;;5093722;28;20024;-58
2023/08/28 10:44:39;;;;;;;15.88;11.10;;;;;;;;;;5092928;28;20020;-62
2023/08/28 10:47:05;;;;;;;14.90;10.50;;;;;;;;;;5092122;28;20032;-61
2023/08/28 10:49:33;;;;;;;15.45;10.70;;;;;;;;;;5093610;28;20337;-62
2023/08/28 10:52:01;;;;;;;15.02;10.32;;;;;;;;;;5093937;28;20665;-58
2023/08/28 10:54:36;;;;;;;15.10;10.57;;;;;;;;;;5093901;28;20388;-55
2023/08/28 10:57:05;;;;;;;14.77;10.35;;;;;;;;;;5094296;28;20024;-61
2023/08/28 10:59:41;;;;;;;14.98;10.43;;;;;;;;;;5093886;28;20361;-58
2023/08/28 11:02:07;;;;;;;19.48;10.77;;;;;;;;;;5088837;28;20024;-60
2023/08/28 11:04:36;;;;;;;15.70;11.00;;;;;;;;;;5082639;28;20098;-62
2023/08/28 11:07:02;;;;;;;14.73;10.07;;;;;;;;;;5081238;28;20105;-61
2023/08/28 11:09:28;;;;;;;16.83;10.82;;;;;;;;;;5082401;28;20024;-60
2023/08/28 11:12:00;;;;;;;15.00;10.50;;;;;;;;;;5061435;28;20123;-57
2023/08/28 11:14:27;;;;;;;15.55;10.95;;;;;;;;;;5073355;28;20029;-55
2023/08/28 11:17:05;;;;;;;16.05;10.70;;;;;;;;;;5075947;28;20117;-59
2023/08/28 11:19:31;;;;;;;15.45;10.70;;;;;;;;;;5061178;28;20025;-62
2023/08/28 11:22:00;;;;;;;15.32;10.30;;;;;;;;;;5078770;28;20017;-62
2023/08/28 11:24:26;;;;;;;17.10;11.07;;;;;;;;;;5073782;28;20029;-56
2023/08/28 11:26:52;;;;;;;16.58;11.25;;;;;;;;;;5073457;28;20427;-60
2023/08/28 11:29:32;;;;;;;15.43;10.60;;;;;;;;;;5073103;28;20024;-60
2023/08/28 11:32:02;;;;;;;16.90;10.82;;;;;;;;;;5073393;28;20028;-60
2023/08/28 11:34:28;;;;;;;16.60;11.38;;;;;;;;;;5072729;28;20035;-55
2023/08/28 11:36:55;;;;;;;15.77;11.30;;;;;;;;;;5054755;28;20032;-60
2023/08/28 11:39:23;;;;;;;15.85;11.45;;;;;;;;;;5053711;28;20107;-61
2023/08/28 11:44:18;;;;;;;15.82;11.68;;;;;;;;;;5089734;22;20516;-58
2023/08/28 11:46:45;;;;;;;17.13;11.80;;;;;;;;;;5071633;28;20404;-56
2023/08/28 11:49:13;;;;;;;16.13;11.68;;;;;;;;;;5071572;28;20040;-56
2023/08/28 11:51:39;;;;;;;15.95;11.90;;;;;;;;;;5071696;28;20070;-57
2023/08/28 11:54:05;;;;;;;15.18;11.70;;;;;;;;;;5071505;28;20454;-56
2023/08/28 11:56:34;;;;;;;15.73;11.52;;;;;;;;;;5071508;28;20378;-59
2023/08/28 11:59:00;;;;;;;15.20;11.73;;;;;;;;;;5071373;28;20405;-54
2023/08/28 12:01:30;;;;;;;15.32;11.60;;;;;;;;;;5072079;28;20111;-57
2023/08/28 12:04:04;;;;;;;17.67;12.18;;;;;;;;;;5071164;28;20020;-53
2023/08/28 12:06:36;;;;;;;17.13;12.55;;;;;;;;;;5071434;28;20035;-59
2023/08/28 12:09:04;;;;;;;15.60;12.10;;;;;;;;;;5071256;28;20440;-60
2023/08/28 12:11:30;;;;;;;15.50;12.05;;;;;;;;;;5071086;28;20070;-58
2023/08/28 12:13:56;;;;;;;16.77;12.35;;;;;;;;;;5070746;28;20062;-51
2023/08/28 12:16:24;;;;;;;16.52;12.85;;;;;;;;;;5071327;28;20438;-55
2023/08/28 12:18:52;;;;;;;15.90;12.70;;;;;;;;;;5071118;28;20024;-57
2023/08/28 12:21:20;;;;;;;16.48;12.73;;;;;;;;;;5070708;28;20060;-58
2023/08/28 12:23:46;;;;;;;16.80;13.30;;;;;;;;;;5070887;28;20028;-54
2023/08/28 12:26:12;;;;;;;16.40;12.65;;;;;;;;;;5070889;28;20513;-55
2023/08/28 12:28:38;;;;;;;17.92;12.57;;;;;;;;;;5070975;28;20028;-56
2023/08/28 12:31:04;;;;;;;16.90;12.90;;;;;;;;;;5052812;28;20094;-57
2023/08/28 12:33:38;;;;;;;16.48;12.20;;;;;;;;;;5070858;28;20494;-52
2023/08/28 12:36:04;;;;;;;16.25;12.50;;;;;;;;;;5059683;28;20489;-56
2023/08/28 12:38:30;;;;;;;16.95;12.90;;;;;;;;;;5061941;28;20515;-52
2023/08/28 12:40:56;;;;;;;17.40;12.80;;;;;;;;;;5070992;28;20028;-56
2023/08/28 12:43:22;;;;;;;19.52;13.73;;;;;;;;;;5070211;28;20041;-53
2023/08/28 12:45:48;;;;;;;17.05;13.15;;;;;;;;;;5070824;28;20476;-60
2023/08/28 12:48:14;;;;;;;15.60;12.60;;;;;;;;;;5071864;28;20028;-57
2023/08/28 12:50:40;;;;;;;16.27;12.50;;;;;;;;;;5071491;28;20503;-52
2023/08/28 12:53:06;;;;;;;15.98;12.35;;;;;;;;;;5070917;28;20020;-51
2023/08/28 12:55:32;;;;;;;17.45;12.20;;;;;;;;;;5071531;28;20499;-57
2023/08/28 12:57:58;;;;;;;15.77;12.77;;;;;;;;;;5073519;28;20048;-58
2023/08/28 13:00:24;;;;;;;17.45;12.85;;;;;;;;;;5071817;28;20484;-57
2023/08/28 13:02:50;;;;;;;16.13;12.30;;;;;;;;;;5071667;28;20024;-56
2023/08/28 13:05:16;;;;;;;16.65;12.20;;;;;;;;;;5070776;28;20123;-54
2023/08/28 13:07:42;;;;;;;17.25;12.15;;;;;;;;;;5073761;28;20484;-57
2023/08/28 13:10:09;;;;;;;15.88;12.07;;;;;;;;;;5072660;28;20032;-56
2023/08/28 13:12:35;;;;;;;18.38;12.50;;;;;;;;;;5052529;28;20068;-57
2023/08/28 13:15:02;;;;;;;15.50;12.48;;;;;;;;;;5070280;28;20024;-59
2023/08/28 13:17:29;;;;;;;16.25;12.27;;;;;;;;;;5051884;28;20028;-51
2023/08/28 13:19:55;;;;;;;16.30;12.40;;;;;;;;;;5069973;28;20074;-60
2023/08/28 13:22:20;;;;;;;16.20;11.82;;;;;;;;;;5070689;28;20092;-53
2023/08/28 13:24:46;;;;;;;15.57;12.05;;;;;;;;;;5070223;28;20166;-56
2023/08/28 13:27:12;;;;;;;16.60;12.18;;;;;;;;;;5070245;28;20025;-54
2023/08/28 13:29:38;;;;;;;16.05;11.90;;;;;;;;;;5070229;28;20025;-59
2023/08/28 13:32:05;;;;;;;15.70;12.30;;;;;;;;;;5070034;28;20043;-57
2023/08/28 13:34:31;;;;;;;19.83;12.80;;;;;;;;;;5070009;28;20071;-58
2023/08/28 13:36:59;;;;;;;16.75;12.10;;;;;;;;;;5051888;28;20120;-59
2023/08/28 13:39:25;;;;;;;15.75;11.70;;;;;;;;;;5069993;28;20013;-57
2023/08/28 13:41:51;;;;;;;17.15;12.10;;;;;;;;;;5070192;28;20019;-59
2023/08/28 13:44:17;;;;;;;15.50;11.90;;;;;;;;;;5069936;28;20035;-54
2023/08/28 13:46:44;;;;;;;17.17;11.95;;;;;;;;;;5052385;28;20051;-56
2023/08/28 13:49:10;;;;;;;17.95;12.40;;;;;;;;;;5069660;28;20100;-57
2023/08/28 13:51:37;;;;;;;16.52;11.85;;;;;;;;;;5069698;28;20028;-58
2023/08/28 13:54:03;;;;;;;15.50;12.70;;;;;;;;;;5051274;28;20039;-57
2023/08/28 13:56:29;;;;;;;16.48;12.70;;;;;;;;;;5069322;28;20033;-54
2023/08/28 13:58:55;;;;;;;16.67;13.60;;;;;;;;;;5069441;28;20013;-56
2023/08/28 14:01:21;;;;;;;16.85;13.18;;;;;;;;;;5069774;28;20102;-50
2023/08/28 14:03:47;;;;;;;16.77;12.98;;;;;;;;;;5073756;28;20374;-56
2023/08/28 14:06:13;;;;;;;16.92;12.85;;;;;;;;;;5076492;28;20020;-56
2023/08/28 14:08:39;;;;;;;17.20;12.63;;;;;;;;;;5058944;28;20034;-55
2023/08/28 14:11:06;;;;;;;17.67;12.82;;;;;;;;;;5078208;28;20036;-57
2023/08/28 14:13:33;;;;;;;15.95;12.85;;;;;;;;;;5077291;28;20032;-59
2023/08/28 14:15:59;;;;;;;15.73;12.32;;;;;;;;;;5082162;28;20032;-56
2023/08/28 14:18:25;;;;;;;16.45;12.40;;;;;;;;;;5080705;28;20012;-58